sensor_id;sensor_type;location;lat;lon;timestamp;pressure;altitude;pressure_sealevel;temperature;humidity
48796;BME280;34607;48.520;-1.330;2022-07-03T00:01:38;100642.94;;;15.40;89.85
48796;BME280;34607;48.520;-1.330;2022-07-03T00:04:06;100661.22;;;15.57;90.08
48796;BME280;34607;48.520;-1.330;2022-07-03T00:06:34;100670.81;;;15.58;89.53
48796;BME280;34607;48.520;-1.330;2022-07-03T00:09:03;100667.34;;;15.58;89.54
48796;BME280;34607;48.520;-1.330;2022-07-03T00:11:31;100666.44;;;15.54;89.59
48796;BME280;34607;48.520;-1.330;2022-07-03T00:13:59;100666.44;;;15.51;89.57
48796;BME280;34607;48.520;-1.330;2022-07-03T00:16:26;100668.19;;;15.43;89.46
48796;BME280;34607;48.520;-1.330;2022-07-03T00:18:53;100661.22;;;15.45;89.79
48796;BME280;34607;48.520;-1.330;2022-07-03T00:21:25;100665.59;;;15.47;89.38
48796;BME280;34607;48.520;-1.330;2022-07-03T00:23:57;100660.34;;;15.49;89.02
48796;BME280;34607;48.520;-1.330;2022-07-03T00:26:29;100662.97;;;15.44;89.19
48796;BME280;34607;48.520;-1.330;2022-07-03T00:29:00;100664.69;;;15.45;89.08
48796;BME280;34607;48.520;-1.330;2022-07-03T00:31:28;100656.88;;;15.42;88.99
48796;BME280;34607;48.520;-1.330;2022-07-03T00:33:57;100669.03;;;15.46;88.81
48796;BME280;34607;48.520;-1.330;2022-07-03T00:36:25;100677.75;;;15.54;88.71
48796;BME280;34607;48.520;-1.330;2022-07-03T00:38:52;100670.81;;;15.47;88.68
48796;BME280;34607;48.520;-1.330;2022-07-03T00:41:26;100669.03;;;15.45;88.67
48796;BME280;34607;48.520;-1.330;2022-07-03T00:43:54;100668.16;;;15.40;88.88
48796;BME280;34607;48.520;-1.330;2022-07-03T00:46:23;100666.41;;;15.32;89.02
48796;BME280;34607;48.520;-1.330;2022-07-03T00:48:51;100666.44;;;15.37;88.94
48796;BME280;34607;48.520;-1.330;2022-07-03T00:51:21;100666.44;;;15.37;88.96
48796;BME280;34607;48.520;-1.330;2022-07-03T00:53:50;100650.72;;;15.17;88.99
48796;BME280;34607;48.520;-1.330;2022-07-03T00:56:23;100675.09;;;15.22;89.42
48796;BME280;34607;48.520;-1.330;2022-07-03T00:58:56;100668.13;;;15.20;89.22
48796;BME280;34607;48.520;-1.330;2022-07-03T01:01:26;100660.28;;;15.09;89.38
48796;BME280;34607;48.520;-1.330;2022-07-03T01:04:10;100672.44;;;15.08;89.36
48796;BME280;34607;48.520;-1.330;2022-07-03T01:06:51;100669.81;;;15.05;89.51
48796;BME280;34607;48.520;-1.330;2022-07-03T01:09:26;100668.97;;;15.09;89.84
48796;BME280;34607;48.520;-1.330;2022-07-03T01:12:03;100678.56;;;15.16;89.55
48796;BME280;34607;48.520;-1.330;2022-07-03T01:14:38;100672.34;;;14.84;89.62
48796;BME280;34607;48.520;-1.330;2022-07-03T01:17:15;100669.78;;;14.88;90.18
48796;BME280;34607;48.520;-1.330;2022-07-03T01:19:48;100674.13;;;14.92;89.93
48796;BME280;34607;48.520;-1.330;2022-07-03T01:22:28;100665.44;;;14.92;89.66
48796;BME280;34607;48.520;-1.330;2022-07-03T01:25:03;100669.81;;;14.94;89.97
48796;BME280;34607;48.520;-1.330;2022-07-03T01:30:36;100669.81;;;15.02;89.99
48796;BME280;34607;48.520;-1.330;2022-07-03T01:33:06;100666.31;;;14.94;90.54
48796;BME280;34607;48.520;-1.330;2022-07-03T01:35:35;100670.66;;;14.93;90.53
48796;BME280;34607;48.520;-1.330;2022-07-03T01:38:05;100676.75;;;14.89;90.89
48796;BME280;34607;48.520;-1.330;2022-07-03T01:40:35;100669.75;;;14.85;90.65
48796;BME280;34607;48.520;-1.330;2022-07-03T01:43:05;100665.38;;;14.79;90.82
48796;BME280;34607;48.520;-1.330;2022-07-03T01:45:36;100674.94;;;14.74;90.96
48796;BME280;34607;48.520;-1.330;2022-07-03T01:48:06;100674.09;;;14.83;90.80
48796;BME280;34607;48.520;-1.330;2022-07-03T01:50:33;100674.06;;;14.74;90.90
48796;BME280;34607;48.520;-1.330;2022-07-03T01:53:02;100677.50;;;14.68;90.96
48796;BME280;34607;48.520;-1.330;2022-07-03T01:55:33;100680.13;;;14.65;91.10
48796;BME280;34607;48.520;-1.330;2022-07-03T01:58:01;100677.41;;;14.57;91.48
48796;BME280;34607;48.520;-1.330;2022-07-03T02:00:30;100680.88;;;14.52;91.54
48796;BME280;34607;48.520;-1.330;2022-07-03T02:03:00;100675.63;;;14.47;91.57
48796;BME280;34607;48.520;-1.330;2022-07-03T02:05:33;100680.84;;;14.49;91.51
48796;BME280;34607;48.520;-1.330;2022-07-03T02:08:12;100675.63;;;14.46;91.39
48796;BME280;34607;48.520;-1.330;2022-07-03T02:10:45;100673.00;;;14.44;91.50
48796;BME280;34607;48.520;-1.330;2022-07-03T02:13:19;100668.69;;;14.45;91.54
48796;BME280;34607;48.520;-1.330;2022-07-03T02:15:50;100672.19;;;14.50;91.63
48796;BME280;34607;48.520;-1.330;2022-07-03T02:18:25;100660.84;;;14.41;91.41
48796;BME280;34607;48.520;-1.330;2022-07-03T02:21:05;100671.28;;;14.45;91.75
48796;BME280;34607;48.520;-1.330;2022-07-03T02:23:38;100671.25;;;14.40;92.21
48796;BME280;34607;48.520;-1.330;2022-07-03T02:26:11;100667.75;;;14.36;92.42
48796;BME280;34607;48.520;-1.330;2022-07-03T02:28:52;100674.69;;;14.39;92.47
48796;BME280;34607;48.520;-1.330;2022-07-03T02:31:24;100675.56;;;14.36;92.63
48796;BME280;34607;48.520;-1.330;2022-07-03T02:33:58;100672.09;;;14.37;93.01
48796;BME280;34607;48.520;-1.330;2022-07-03T02:36:28;100669.50;;;14.34;93.09
48796;BME280;34607;48.520;-1.330;2022-07-03T02:38:57;100667.75;;;14.35;92.88
48796;BME280;34607;48.520;-1.330;2022-07-03T02:41:29;100656.38;;;14.23;92.91
48796;BME280;34607;48.520;-1.330;2022-07-03T02:44:10;100670.25;;;14.21;93.11
48796;BME280;34607;48.520;-1.330;2022-07-03T02:46:49;100672.88;;;14.26;93.21
48796;BME280;34607;48.520;-1.330;2022-07-03T02:49:31;100665.94;;;14.24;93.22
48796;BME280;34607;48.520;-1.330;2022-07-03T02:52:11;100675.47;;;14.26;93.02
48796;BME280;34607;48.520;-1.330;2022-07-03T02:54:43;100672.06;;;14.30;93.05
48796;BME280;34607;48.520;-1.330;2022-07-03T02:57:13;100676.38;;;14.24;93.34
48796;BME280;34607;48.520;-1.330;2022-07-03T02:59:49;100670.25;;;14.19;93.63
48796;BME280;34607;48.520;-1.330;2022-07-03T03:02:28;100672.84;;;14.18;93.37
48796;BME280;34607;48.520;-1.330;2022-07-03T03:05:02;100678.03;;;14.15;93.45
48796;BME280;34607;48.520;-1.330;2022-07-03T03:07:34;100673.69;;;14.14;93.60
48796;BME280;34607;48.520;-1.330;2022-07-03T03:10:02;100672.81;;;14.13;93.45
48796;BME280;34607;48.520;-1.330;2022-07-03T03:12:31;100640.59;;;13.99;93.21
48796;BME280;34607;48.520;-1.330;2022-07-03T03:15:04;100671.03;;;14.06;93.01
48796;BME280;34607;48.520;-1.330;2022-07-03T03:17:36;100677.06;;;14.05;93.36
48796;BME280;34607;48.520;-1.330;2022-07-03T03:20:07;100672.69;;;13.98;93.59
48796;BME280;34607;48.520;-1.330;2022-07-03T03:22:44;100674.38;;;13.93;93.91
48796;BME280;34607;48.520;-1.330;2022-07-03T03:25:15;100674.38;;;13.88;94.09
48796;BME280;34607;48.520;-1.330;2022-07-03T03:27:42;100676.97;;;13.88;94.12
48796;BME280;34607;48.520;-1.330;2022-07-03T03:30:10;100665.69;;;13.89;94.10
48796;BME280;34607;48.520;-1.330;2022-07-03T03:32:39;100677.88;;;13.96;94.05
48796;BME280;34607;48.520;-1.330;2022-07-03T03:35:08;100669.16;;;13.91;93.89
48796;BME280;34607;48.520;-1.330;2022-07-03T03:37:35;100670.84;;;13.84;94.06
48796;BME280;34607;48.520;-1.330;2022-07-03T03:40:02;100673.47;;;13.83;94.04
48796;BME280;34607;48.520;-1.330;2022-07-03T03:42:30;100675.16;;;13.81;93.79
48796;BME280;34607;48.520;-1.330;2022-07-03T03:44:57;100675.16;;;13.78;94.17
48796;BME280;34607;48.520;-1.330;2022-07-03T03:47:24;100682.06;;;13.76;94.11
48796;BME280;34607;48.520;-1.330;2022-07-03T03:49:54;100677.69;;;13.72;94.19
48796;BME280;34607;48.520;-1.330;2022-07-03T03:52:22;100675.09;;;13.72;94.25
48796;BME280;34607;48.520;-1.330;2022-07-03T03:54:49;100683.75;;;13.72;94.01
48796;BME280;34607;48.520;-1.330;2022-07-03T03:57:17;100683.75;;;13.67;93.83
48796;BME280;34607;48.520;-1.330;2022-07-03T03:59:45;100668.00;;;13.57;93.91
48796;BME280;34607;48.520;-1.330;2022-07-03T04:02:13;100659.28;;;13.47;94.01
48796;BME280;34607;48.520;-1.330;2022-07-03T04:04:40;100675.84;;;13.60;94.06
48796;BME280;34607;48.520;-1.330;2022-07-03T04:07:09;100681.94;;;13.63;94.17
48796;BME280;34607;48.520;-1.330;2022-07-03T04:09:36;100684.53;;;13.62;94.19
48796;BME280;34607;48.520;-1.330;2022-07-03T04:12:04;100683.66;;;13.58;94.20
48796;BME280;34607;48.520;-1.330;2022-07-03T04:14:31;100680.97;;;13.49;94.29
48796;BME280;34607;48.520;-1.330;2022-07-03T04:16:58;100692.31;;;13.59;94.44
48796;BME280;34607;48.520;-1.330;2022-07-03T04:19:25;100673.13;;;13.46;94.62
48796;BME280;34607;48.520;-1.330;2022-07-03T04:21:52;100693.94;;;13.46;94.70
48796;BME280;34607;48.520;-1.330;2022-07-03T04:24:21;100690.50;;;13.47;94.81
48796;BME280;34607;48.520;-1.330;2022-07-03T04:26:48;100693.06;;;13.48;95.16
48796;BME280;34607;48.520;-1.330;2022-07-03T04:29:15;100688.72;;;13.46;94.90
48796;BME280;34607;48.520;-1.330;2022-07-03T04:31:42;100690.44;;;13.44;95.10
48796;BME280;34607;48.520;-1.330;2022-07-03T04:34:09;100695.69;;;13.47;95.07
48796;BME280;34607;48.520;-1.330;2022-07-03T04:36:37;100697.41;;;13.48;95.37
48796;BME280;34607;48.520;-1.330;2022-07-03T04:39:04;100689.66;;;13.51;95.79
48796;BME280;34607;48.520;-1.330;2022-07-03T04:41:33;100687.19;;;13.66;95.68
48796;BME280;34607;48.520;-1.330;2022-07-03T04:44:00;100688.97;;;13.72;95.59
48796;BME280;34607;48.520;-1.330;2022-07-03T04:46:27;100695.94;;;13.75;95.71
48796;BME280;34607;48.520;-1.330;2022-07-03T04:48:54;100700.31;;;13.80;95.77
48796;BME280;34607;48.520;-1.330;2022-07-03T04:51:21;100696.91;;;13.88;95.93
48796;BME280;34607;48.520;-1.330;2022-07-03T04:53:48;100704.81;;;13.97;95.70
48796;BME280;34607;48.520;-1.330;2022-07-03T04:56:15;100703.91;;;13.96;95.82
48796;BME280;34607;48.520;-1.330;2022-07-03T04:58:44;100703.06;;;13.97;96.04
48796;BME280;34607;48.520;-1.330;2022-07-03T05:01:11;100701.31;;;13.96;96.02
48796;BME280;34607;48.520;-1.330;2022-07-03T05:03:38;100693.44;;;13.85;96.31
48796;BME280;34607;48.520;-1.330;2022-07-03T05:06:05;100711.72;;;13.96;96.70
48796;BME280;34607;48.520;-1.330;2022-07-03T05:08:32;100708.28;;;13.97;96.94
48796;BME280;34607;48.520;-1.330;2022-07-03T05:10:59;100714.41;;;14.02;97.01
48796;BME280;34607;48.520;-1.330;2022-07-03T05:13:26;100712.72;;;14.11;96.96
48796;BME280;34607;48.520;-1.330;2022-07-03T05:15:55;100711.94;;;14.19;96.51
48796;BME280;34607;48.520;-1.330;2022-07-03T05:18:22;100716.34;;;14.30;96.53
48796;BME280;34607;48.520;-1.330;2022-07-03T05:20:49;100712.84;;;14.31;96.46
48796;BME280;34607;48.520;-1.330;2022-07-03T05:23:16;100718.97;;;14.37;96.49
48796;BME280;34607;48.520;-1.330;2022-07-03T05:25:43;100708.56;;;14.34;96.37
48796;BME280;34607;48.520;-1.330;2022-07-03T05:28:10;100715.56;;;14.41;96.42
48796;BME280;34607;48.520;-1.330;2022-07-03T05:30:37;100706.81;;;14.35;96.69
48796;BME280;34607;48.520;-1.330;2022-07-03T05:33:05;100715.56;;;14.43;96.56
48796;BME280;34607;48.520;-1.330;2022-07-03T05:35:32;100724.28;;;14.48;96.82
48796;BME280;34607;48.520;-1.330;2022-07-03T05:38:00;100722.59;;;14.55;96.64
48796;BME280;34607;48.520;-1.330;2022-07-03T05:40:27;100724.28;;;14.53;96.32
48796;BME280;34607;48.520;-1.330;2022-07-03T05:42:53;100727.78;;;14.53;96.56
48796;BME280;34607;48.520;-1.330;2022-07-03T05:45:20;100726.88;;;14.51;96.52
48796;BME280;34607;48.520;-1.330;2022-07-03T05:47:47;100727.78;;;14.52;96.47
48796;BME280;34607;48.520;-1.330;2022-07-03T05:50:16;100727.78;;;14.52;96.48
48796;BME280;34607;48.520;-1.330;2022-07-03T05:52:43;100713.78;;;14.40;96.50
48796;BME280;34607;48.520;-1.330;2022-07-03T05:55:10;100720.72;;;14.37;97.31
48796;BME280;34607;48.520;-1.330;2022-07-03T05:57:37;100726.88;;;14.48;97.35
48796;BME280;34607;48.520;-1.330;2022-07-03T06:00:05;100713.84;;;14.47;97.35
48796;BME280;34607;48.520;-1.330;2022-07-03T06:02:32;100726.16;;;14.66;96.91
48796;BME280;34607;48.520;-1.330;2022-07-03T06:04:59;100719.28;;;14.79;96.94
48796;BME280;34607;48.520;-1.330;2022-07-03T06:07:28;100722.78;;;14.89;96.48
48796;BME280;34607;48.520;-1.330;2022-07-03T06:09:55;100714.06;;;14.84;96.51
48796;BME280;34607;48.520;-1.330;2022-07-03T06:12:22;100722.84;;;14.98;96.70
48796;BME280;34607;48.520;-1.330;2022-07-03T06:14:50;100721.97;;;15.04;96.59
48796;BME280;34607;48.520;-1.330;2022-07-03T06:17:17;100723.72;;;15.08;96.30
48796;BME280;34607;48.520;-1.330;2022-07-03T06:19:44;100717.63;;;14.98;96.60
48796;BME280;34607;48.520;-1.330;2022-07-03T06:22:11;100708.06;;;15.00;96.73
48796;BME280;34607;48.520;-1.330;2022-07-03T06:24:39;100728.16;;;15.26;96.70
48796;BME280;34607;48.520;-1.330;2022-07-03T06:27:06;100734.25;;;15.40;95.88
48796;BME280;34607;48.520;-1.330;2022-07-03T06:29:33;100736.03;;;15.41;95.59
48796;BME280;34607;48.520;-1.330;2022-07-03T06:32:00;100736.91;;;15.46;95.14
48796;BME280;34607;48.520;-1.330;2022-07-03T06:34:28;100744.72;;;15.54;95.53
48796;BME280;34607;48.520;-1.330;2022-07-03T06:36:55;100743.00;;;15.62;95.32
48796;BME280;34607;48.520;-1.330;2022-07-03T06:39:22;100742.19;;;15.83;95.13
48796;BME280;34607;48.520;-1.330;2022-07-03T06:41:50;100745.69;;;16.04;94.68
48796;BME280;34607;48.520;-1.330;2022-07-03T06:44:17;100744.81;;;16.29;94.24
48796;BME280;34607;48.520;-1.330;2022-07-03T06:46:44;100733.50;;;16.26;92.90
48796;BME280;34607;48.520;-1.330;2022-07-03T06:49:11;100746.56;;;16.26;93.28
48796;BME280;34607;48.520;-1.330;2022-07-03T06:51:38;100743.97;;;16.31;92.97
48796;BME280;34607;48.520;-1.330;2022-07-03T06:54:05;100755.28;;;16.42;92.83
48796;BME280;34607;48.520;-1.330;2022-07-03T06:56:32;100757.88;;;16.45;92.38
48796;BME280;34607;48.520;-1.330;2022-07-03T06:59:01;100763.97;;;16.56;92.64
48796;BME280;34607;48.520;-1.330;2022-07-03T07:01:28;100764.78;;;16.89;92.29
48796;BME280;34607;48.520;-1.330;2022-07-03T07:03:56;100755.97;;;17.18;91.35
48796;BME280;34607;48.520;-1.330;2022-07-03T07:06:23;100758.56;;;17.21;90.40
48796;BME280;34607;48.520;-1.330;2022-07-03T07:08:50;100762.91;;;17.22;90.32
48796;BME280;34607;48.520;-1.330;2022-07-03T07:11:17;100762.88;;;17.33;90.52
48796;BME280;34607;48.520;-1.330;2022-07-03T07:13:44;100764.56;;;17.45;90.00
48796;BME280;34607;48.520;-1.330;2022-07-03T07:16:12;100771.41;;;17.69;89.76
48796;BME280;34607;48.520;-1.330;2022-07-03T07:18:40;100763.38;;;17.98;88.78
48796;BME280;34607;48.520;-1.330;2022-07-03T07:21:07;100757.09;;;18.19;88.12
48796;BME280;34607;48.520;-1.330;2022-07-03T07:23:34;100767.56;;;18.19;87.16
48796;BME280;34607;48.520;-1.330;2022-07-03T07:26:02;100766.81;;;18.08;86.99
48796;BME280;34607;48.520;-1.330;2022-07-03T07:28:29;100766.94;;;17.89;86.97
48796;BME280;34607;48.520;-1.330;2022-07-03T07:30:59;100772.31;;;17.63;87.55
48796;BME280;34607;48.520;-1.330;2022-07-03T07:33:27;100773.19;;;17.65;87.48
48796;BME280;34607;48.520;-1.330;2022-07-03T07:35:54;100767.72;;;18.02;87.64
48796;BME280;34607;48.520;-1.330;2022-07-03T07:38:21;100770.97;;;18.32;86.01
48796;BME280;34607;48.520;-1.330;2022-07-03T07:40:48;100760.22;;;18.58;85.90
48796;BME280;34607;48.520;-1.330;2022-07-03T07:43:15;100761.03;;;18.65;84.46
48796;BME280;34607;48.520;-1.330;2022-07-03T07:45:42;100764.72;;;18.45;84.57
48796;BME280;34607;48.520;-1.330;2022-07-03T07:48:09;100755.81;;;18.63;83.98
48796;BME280;34607;48.520;-1.330;2022-07-03T07:50:38;100758.84;;;19.05;82.57
48796;BME280;34607;48.520;-1.330;2022-07-03T07:53:06;100741.44;;;18.98;81.81
48796;BME280;34607;48.520;-1.330;2022-07-03T07:55:33;100759.47;;;19.26;81.41
48796;BME280;34607;48.520;-1.330;2022-07-03T07:58:00;100755.28;;;19.14;80.65
48796;BME280;34607;48.520;-1.330;2022-07-03T08:00:27;100766.16;;;18.76;81.59
48796;BME280;34607;48.520;-1.330;2022-07-03T08:02:54;100763.75;;;18.56;82.49
48796;BME280;34607;48.520;-1.330;2022-07-03T08:05:40;100766.69;;;19.08;82.65
48796;BME280;34607;48.520;-1.330;2022-07-03T08:08:08;100765.06;;;19.65;80.93
48796;BME280;34607;48.520;-1.330;2022-07-03T08:10:37;100761.94;;;20.00;79.51
48796;BME280;34607;48.520;-1.330;2022-07-03T08:13:04;100762.56;;;20.15;77.89
48796;BME280;34607;48.520;-1.330;2022-07-03T08:15:32;100768.69;;;19.58;78.87
48796;BME280;34607;48.520;-1.330;2022-07-03T08:17:59;100766.66;;;19.12;79.59
48796;BME280;34607;48.520;-1.330;2022-07-03T08:20:26;100756.44;;;18.88;80.36
48796;BME280;34607;48.520;-1.330;2022-07-03T08:22:55;100729.81;;;19.19;79.86
48796;BME280;34607;48.520;-1.330;2022-07-03T08:25:22;100750.41;;;20.09;78.43
48796;BME280;34607;48.520;-1.330;2022-07-03T08:27:49;100765.94;;;20.23;76.70
48796;BME280;34607;48.520;-1.330;2022-07-03T08:30:18;100755.63;;;20.11;76.24
48796;BME280;34607;48.520;-1.330;2022-07-03T08:32:46;100759.66;;;19.77;76.76
48796;BME280;34607;48.520;-1.330;2022-07-03T08:35:14;100754.56;;;19.65;76.84
48796;BME280;34607;48.520;-1.330;2022-07-03T08:37:41;100757.31;;;19.57;76.44
48796;BME280;34607;48.520;-1.330;2022-07-03T08:40:12;100762.69;;;19.48;76.44
48796;BME280;34607;48.520;-1.330;2022-07-03T08:42:42;100749.69;;;19.39;76.33
48796;BME280;34607;48.520;-1.330;2022-07-03T08:45:13;100752.16;;;20.09;75.75
48796;BME280;34607;48.520;-1.330;2022-07-03T08:47:42;100740.72;;;20.63;73.80
48796;BME280;34607;48.520;-1.330;2022-07-03T08:50:10;100745.00;;;21.12;73.04
48796;BME280;34607;48.520;-1.330;2022-07-03T08:52:39;100741.09;;;20.89;71.46
48796;BME280;34607;48.520;-1.330;2022-07-03T08:55:06;100744.72;;;20.34;72.06
48796;BME280;34607;48.520;-1.330;2022-07-03T08:57:36;100749.50;;;20.63;71.84
48796;BME280;34607;48.520;-1.330;2022-07-03T09:00:06;100754.25;;;20.89;71.49
48796;BME280;34607;48.520;-1.330;2022-07-03T09:02:34;100741.16;;;20.85;70.97
48796;BME280;34607;48.520;-1.330;2022-07-03T09:05:02;100751.69;;;20.85;70.02
48796;BME280;34607;48.520;-1.330;2022-07-03T09:07:34;100752.31;;;20.51;70.78
48796;BME280;34607;48.520;-1.330;2022-07-03T09:10:02;100752.03;;;21.11;70.36
48796;BME280;34607;48.520;-1.330;2022-07-03T09:12:30;100738.81;;;21.93;68.29
48796;BME280;34607;48.520;-1.330;2022-07-03T09:14:58;100744.84;;;21.98;68.10
48796;BME280;34607;48.520;-1.330;2022-07-03T09:17:26;100752.56;;;21.29;69.09
48796;BME280;34607;48.520;-1.330;2022-07-03T09:19:54;100758.28;;;20.59;70.54
48796;BME280;34607;48.520;-1.330;2022-07-03T09:22:25;100751.75;;;20.32;71.86
48796;BME280;34607;48.520;-1.330;2022-07-03T09:24:54;100744.94;;;20.21;72.09
48796;BME280;34607;48.520;-1.330;2022-07-03T09:27:22;100756.16;;;20.31;71.81
48796;BME280;34607;48.520;-1.330;2022-07-03T09:30:02;100720.44;;;20.18;71.59
48796;BME280;34607;48.520;-1.330;2022-07-03T09:32:40;100758.44;;;20.51;71.63
48796;BME280;34607;48.520;-1.330;2022-07-03T09:35:18;100751.78;;;20.30;70.73
48796;BME280;34607;48.520;-1.330;2022-07-03T09:37:50;100763.28;;;20.26;71.70
48796;BME280;34607;48.520;-1.330;2022-07-03T09:40:18;100760.22;;;20.49;72.53
48796;BME280;34607;48.520;-1.330;2022-07-03T09:43:02;100764.03;;;21.25;68.73
48796;BME280;34607;48.520;-1.330;2022-07-03T09:45:55;100757.03;;;20.80;69.02
48796;BME280;34607;48.520;-1.330;2022-07-03T09:48:24;100757.41;;;20.63;69.78
48796;BME280;34607;48.520;-1.330;2022-07-03T09:51:08;100767.38;;;20.43;71.16
48796;BME280;34607;48.520;-1.330;2022-07-03T09:54:00;100762.16;;;20.39;71.11
48796;BME280;34607;48.520;-1.330;2022-07-03T09:56:32;100764.53;;;20.55;71.11
48796;BME280;34607;48.520;-1.330;2022-07-03T09:59:01;100774.16;;;20.54;71.12
48796;BME280;34607;48.520;-1.330;2022-07-03T10:01:30;100780.66;;;20.35;71.41
48796;BME280;34607;48.520;-1.330;2022-07-03T10:04:09;100733.78;;;20.09;71.51
48796;BME280;34607;48.520;-1.330;2022-07-03T10:06:50;100785.78;;;20.43;70.20
48796;BME280;34607;48.520;-1.330;2022-07-03T10:09:19;100777.69;;;20.53;71.01
48796;BME280;34607;48.520;-1.330;2022-07-03T10:11:47;100784.47;;;21.13;69.86
48796;BME280;34607;48.520;-1.330;2022-07-03T10:14:15;100791.44;;;21.16;70.31
48796;BME280;34607;48.520;-1.330;2022-07-03T10:16:45;100792.69;;;20.98;70.80
48796;BME280;34607;48.520;-1.330;2022-07-03T10:19:14;100793.09;;;20.76;71.57
48796;BME280;34607;48.520;-1.330;2022-07-03T10:21:49;100802.94;;;20.67;70.13
48796;BME280;34607;48.520;-1.330;2022-07-03T10:24:17;100784.00;;;20.45;70.26
48796;BME280;34607;48.520;-1.330;2022-07-03T10:26:46;100795.56;;;20.34;70.19
48796;BME280;34607;48.520;-1.330;2022-07-03T10:29:14;100798.59;;;20.08;71.31
48796;BME280;34607;48.520;-1.330;2022-07-03T10:31:45;100796.06;;;20.05;71.76
48796;BME280;34607;48.520;-1.330;2022-07-03T10:34:17;100798.41;;;20.22;71.55
48796;BME280;34607;48.520;-1.330;2022-07-03T10:36:47;100807.56;;;20.49;70.85
48796;BME280;34607;48.520;-1.330;2022-07-03T10:39:20;100806.44;;;20.67;69.75
48796;BME280;34607;48.520;-1.330;2022-07-03T10:41:50;100808.03;;;20.21;70.51
48796;BME280;34607;48.520;-1.330;2022-07-03T10:44:50;100808.25;;;20.08;71.36
48796;BME280;34607;48.520;-1.330;2022-07-03T10:47:40;100815.06;;;20.23;71.17
48796;BME280;34607;48.520;-1.330;2022-07-03T10:50:10;100807.34;;;20.65;70.74
48796;BME280;34607;48.520;-1.330;2022-07-03T10:52:38;100817.13;;;21.05;70.33
48796;BME280;34607;48.520;-1.330;2022-07-03T10:55:06;100810.91;;;21.07;68.72
48796;BME280;34607;48.520;-1.330;2022-07-03T10:57:34;100815.34;;;21.05;68.33
48796;BME280;34607;48.520;-1.330;2022-07-03T11:00:18;100810.75;;;21.17;68.03
48796;BME280;34607;48.520;-1.330;2022-07-03T11:02:51;100800.72;;;21.34;68.72
48796;BME280;34607;48.520;-1.330;2022-07-03T11:05:23;100812.88;;;21.83;67.50
48796;BME280;34607;48.520;-1.330;2022-07-03T11:08:08;100803.50;;;22.78;65.85
48796;BME280;34607;48.520;-1.330;2022-07-03T11:10:36;100796.81;;;22.65;65.80
48796;BME280;34607;48.520;-1.330;2022-07-03T11:13:17;100800.22;;;23.01;65.15
48796;BME280;34607;48.520;-1.330;2022-07-03T11:15:49;100792.75;;;22.84;64.89
48796;BME280;34607;48.520;-1.330;2022-07-03T11:18:29;100800.25;;;22.34;65.42
48796;BME280;34607;48.520;-1.330;2022-07-03T11:24:19;100808.91;;;23.37;62.14
48796;BME280;34607;48.520;-1.330;2022-07-03T11:27:19;100804.94;;;23.23;62.07
48796;BME280;34607;48.520;-1.330;2022-07-03T11:29:52;100801.25;;;22.95;63.17
48796;BME280;34607;48.520;-1.330;2022-07-03T11:32:47;100775.88;;;23.51;62.60
48796;BME280;34607;48.520;-1.330;2022-07-03T11:35:52;100802.25;;;23.24;62.11
48796;BME280;34607;48.520;-1.330;2022-07-03T11:38:28;100809.72;;;22.75;64.02
48796;BME280;34607;48.520;-1.330;2022-07-03T11:40:57;100809.75;;;22.41;64.31
48796;BME280;34607;48.520;-1.330;2022-07-03T11:43:25;100815.19;;;21.97;65.00
48796;BME280;34607;48.520;-1.330;2022-07-03T11:45:52;100802.50;;;22.49;65.14
48796;BME280;34607;48.520;-1.330;2022-07-03T11:48:21;100797.00;;;23.52;64.85
48796;BME280;34607;48.520;-1.330;2022-07-03T11:50:49;100796.69;;;24.20;62.29
48796;BME280;34607;48.520;-1.330;2022-07-03T11:53:23;100796.56;;;24.23;62.19
48796;BME280;34607;48.520;-1.330;2022-07-03T11:55:56;100800.06;;;23.97;61.43
48796;BME280;34607;48.520;-1.330;2022-07-03T11:58:24;100793.47;;;23.82;62.29
48796;BME280;34607;48.520;-1.330;2022-07-03T12:00:52;100777.53;;;23.25;62.42
48796;BME280;34607;48.520;-1.330;2022-07-03T12:03:24;100796.41;;;22.80;63.37
48796;BME280;34607;48.520;-1.330;2022-07-03T12:05:57;100776.56;;;22.31;65.03
48796;BME280;34607;48.520;-1.330;2022-07-03T12:08:28;100800.09;;;22.04;66.25
48796;BME280;34607;48.520;-1.330;2022-07-03T12:11:00;100810.63;;;21.66;67.74
48796;BME280;34607;48.520;-1.330;2022-07-03T12:13:28;100770.44;;;21.13;69.12
48796;BME280;34607;48.520;-1.330;2022-07-03T12:16:04;100809.66;;;21.27;68.42
48796;BME280;34607;48.520;-1.330;2022-07-03T12:18:46;100806.34;;;21.17;68.77
48796;BME280;34607;48.520;-1.330;2022-07-03T12:21:14;100802.53;;;21.32;68.48
48796;BME280;34607;48.520;-1.330;2022-07-03T12:23:45;100803.22;;;21.40;68.81
48796;BME280;34607;48.520;-1.330;2022-07-03T12:26:13;100797.16;;;21.37;68.63
48796;BME280;34607;48.520;-1.330;2022-07-03T12:28:41;100801.03;;;21.20;68.13
48796;BME280;34607;48.520;-1.330;2022-07-03T12:31:08;100801.56;;;21.36;68.23
48796;BME280;34607;48.520;-1.330;2022-07-03T12:33:35;100799.53;;;21.89;67.76
48796;BME280;34607;48.520;-1.330;2022-07-03T12:36:04;100782.81;;;22.26;66.42
48796;BME280;34607;48.520;-1.330;2022-07-03T12:38:31;100793.13;;;22.37;65.43
48796;BME280;34607;48.520;-1.330;2022-07-03T12:41:05;100794.50;;;22.16;65.20
48796;BME280;34607;48.520;-1.330;2022-07-03T12:43:37;100805.34;;;22.04;63.93
48796;BME280;34607;48.520;-1.330;2022-07-03T12:46:18;100793.31;;;22.31;63.62
48796;BME280;34607;48.520;-1.330;2022-07-03T12:48:47;100794.50;;;22.16;64.21
48796;BME280;34607;48.520;-1.330;2022-07-03T12:51:15;100799.88;;;21.74;65.01
48796;BME280;34607;48.520;-1.330;2022-07-03T12:53:43;100801.03;;;21.20;66.88
48796;BME280;34607;48.520;-1.330;2022-07-03T12:56:11;100794.06;;;21.16;67.17
48796;BME280;34607;48.520;-1.330;2022-07-03T12:58:39;100800.38;;;21.07;66.56
48796;BME280;34607;48.520;-1.330;2022-07-03T13:01:25;100782.88;;;21.48;66.56
48796;BME280;34607;48.520;-1.330;2022-07-03T13:03:52;100797.91;;;21.42;67.17